createdAt,value
2022-09-27T00:01:47.605Z,17.80
2022-09-27T00:04:15.920Z,17.80
2022-09-27T00:06:44.293Z,17.80
2022-09-27T00:09:12.477Z,17.80
2022-09-27T00:11:42.688Z,17.80
2022-09-27T00:14:13.538Z,17.80
2022-09-27T00:16:44.009Z,17.80
2022-09-27T00:19:18.070Z,17.70
2022-09-27T00:21:47.782Z,17.70
2022-09-27T00:24:18.600Z,17.80
2022-09-27T00:26:47.864Z,17.80
2022-09-27T00:29:17.075Z,17.80
2022-09-27T00:31:47.641Z,17.80
2022-09-27T00:34:21.175Z,17.80
2022-09-27T00:36:50.224Z,17.80
2022-09-27T00:39:18.854Z,17.80
2022-09-27T00:41:47.006Z,17.80
2022-09-27T00:44:52.568Z,17.80
2022-09-27T00:47:26.915Z,17.90
2022-09-27T00:49:58.363Z,17.80
2022-09-27T00:52:30.764Z,17.80
2022-09-27T00:55:05.721Z,17.80
2022-09-27T00:57:34.312Z,17.80
2022-09-27T01:00:05.957Z,17.80
2022-09-27T01:02:36.664Z,17.80
2022-09-27T01:05:05.967Z,17.80
2022-09-27T01:07:34.953Z,17.80
2022-09-27T01:10:03.642Z,17.80
2022-09-27T01:12:41.862Z,17.80
2022-09-27T01:15:17.223Z,17.80
2022-09-27T01:18:01.668Z,17.80
2022-09-27T01:21:09.824Z,17.80
2022-09-27T01:23:54.974Z,17.80
2022-09-27T01:26:47.007Z,17.70
2022-09-27T01:29:25.907Z,17.70
2022-09-27T01:32:04.404Z,17.70
2022-09-27T01:34:43.695Z,17.70
2022-09-27T01:37:18.927Z,17.60
2022-09-27T01:39:54.139Z,17.60
2022-09-27T01:42:27.244Z,17.60
2022-09-27T01:44:59.992Z,17.60
2022-09-27T01:47:36.732Z,17.60
2022-09-27T01:50:08.079Z,17.60
2022-09-27T01:52:42.234Z,17.60
2022-09-27T01:55:16.288Z,17.60
2022-09-27T01:57:48.513Z,17.60
2022-09-27T02:00:17.185Z,17.60
2022-09-27T02:02:51.451Z,17.50
2022-09-27T02:05:22.301Z,17.50
2022-09-27T02:07:57.692Z,17.50
2022-09-27T02:10:31.219Z,17.50
2022-09-27T02:13:06.543Z,17.40
2022-09-27T02:15:49.524Z,17.40
2022-09-27T02:18:24.216Z,17.40
2022-09-27T02:20:57.232Z,17.30
2022-09-27T02:23:36.158Z,17.30
2022-09-27T02:26:08.760Z,17.30
2022-09-27T02:28:41.701Z,17.20
2022-09-27T02:31:10.344Z,17.20
2022-09-27T02:33:43.908Z,17.20
2022-09-27T02:36:12.902Z,17.20
2022-09-27T02:38:41.466Z,17.20
2022-09-27T02:41:15.379Z,17.20
2022-09-27T02:43:45.944Z,17.20
2022-09-27T02:46:33.400Z,17.20
2022-09-27T02:49:20.493Z,17.20
2022-09-27T02:51:57.734Z,17.20
2022-09-27T02:54:31.991Z,17.20
2022-09-27T02:57:09.984Z,17.20
2022-09-27T02:59:52.261Z,17.20
2022-09-27T03:02:32.056Z,17.20
2022-09-27T03:05:06.313Z,17.10
2022-09-27T03:07:35.249Z,17.10
2022-09-27T03:10:03.694Z,17.10
2022-09-27T03:12:32.176Z,17.10
2022-09-27T03:15:01.717Z,17.10
2022-09-27T03:17:29.924Z,17.10
2022-09-27T03:19:58.066Z,17.10
2022-09-27T03:22:27.683Z,17.10
2022-09-27T03:24:55.865Z,17.10
2022-09-27T03:27:24.031Z,17.00
2022-09-27T03:29:52.320Z,17.00
2022-09-27T03:32:20.836Z,17.00
2022-09-27T03:34:48.986Z,17.00
2022-09-27T03:37:17.166Z,17.00
2022-09-27T03:39:46.725Z,17.00
2022-09-27T03:42:14.973Z,17.00
2022-09-27T03:44:43.185Z,16.90
2022-09-27T03:47:11.390Z,16.90
2022-09-27T03:49:39.768Z,16.90
2022-09-27T03:52:07.913Z,16.90
2022-09-27T03:54:35.999Z,16.90
2022-09-27T03:57:05.853Z,16.80
2022-09-27T03:59:34.031Z,16.80
2022-09-27T04:02:02.310Z,16.80
2022-09-27T04:04:31.488Z,16.80
2022-09-27T04:06:59.996Z,16.80
2022-09-27T04:09:28.201Z,16.80
2022-09-27T04:11:56.341Z,16.80
2022-09-27T04:14:25.868Z,16.70
2022-09-27T04:16:54.059Z,16.70
2022-09-27T04:19:22.350Z,16.60
2022-09-27T04:21:50.549Z,16.60
2022-09-27T04:24:18.619Z,16.60
2022-09-27T04:26:47.104Z,16.60
2022-09-27T04:29:16.019Z,16.60
2022-09-27T04:31:45.726Z,16.50
2022-09-27T04:34:13.938Z,16.50
2022-09-27T04:36:41.073Z,16.50
2022-09-27T04:39:10.517Z,16.50
2022-09-27T04:41:38.697Z,16.50
2022-09-27T04:44:07.399Z,16.50
2022-09-27T04:46:35.679Z,16.50
2022-09-27T04:49:05.376Z,16.40
2022-09-27T04:51:33.587Z,16.40
2022-09-27T04:54:01.998Z,16.40
2022-09-27T04:56:30.248Z,16.40
2022-09-27T04:58:58.791Z,16.30
2022-09-27T05:01:27.147Z,16.30
2022-09-27T05:03:55.264Z,16.30
2022-09-27T05:06:24.816Z,16.30
2022-09-27T05:08:53.148Z,16.30
2022-09-27T05:11:22.417Z,16.20
2022-09-27T05:13:50.591Z,16.30
2022-09-27T05:16:20.074Z,16.20
2022-09-27T05:18:48.548Z,16.20
2022-09-27T05:21:16.757Z,16.20
2022-09-27T05:23:47.977Z,16.20
2022-09-27T05:26:16.463Z,16.20
2022-09-27T05:28:47.339Z,16.20
2022-09-27T05:31:16.322Z,16.20
2022-09-27T05:33:44.627Z,16.20
2022-09-27T05:36:12.921Z,16.20
2022-09-27T05:38:42.421Z,16.20
2022-09-27T05:41:12.252Z,16.10
2022-09-27T05:43:40.479Z,16.10
2022-09-27T05:46:08.720Z,16.10
2022-09-27T05:48:37.698Z,16.10
2022-09-27T05:51:06.364Z,16.10
2022-09-27T05:53:34.479Z,16.10
2022-09-27T05:56:04.143Z,16.10
2022-09-27T05:58:34.516Z,16.10
2022-09-27T06:01:02.783Z,16.10
2022-09-27T06:03:31.024Z,16.10
2022-09-27T06:06:04.149Z,16.10
2022-09-27T06:08:34.995Z,16.20
2022-09-27T06:11:05.362Z,16.20
2022-09-27T06:13:36.262Z,16.20
2022-09-27T06:16:04.859Z,16.30
2022-09-27T06:18:33.132Z,16.30
2022-09-27T06:21:02.132Z,16.40
2022-09-27T06:23:32.761Z,16.50
2022-09-27T06:26:03.432Z,16.60
2022-09-27T06:28:31.947Z,16.60
2022-09-27T06:31:01.635Z,16.70
2022-09-27T06:33:30.001Z,16.70
2022-09-27T06:35:58.215Z,16.80
2022-09-27T06:38:26.702Z,16.80
2022-09-27T06:40:58.125Z,16.80
2022-09-27T06:43:26.427Z,16.90
2022-09-27T06:45:55.079Z,16.90
2022-09-27T06:48:25.012Z,17.00
2022-09-27T06:50:53.281Z,17.00
2022-09-27T06:53:21.434Z,17.00
2022-09-27T06:55:50.772Z,17.10
2022-09-27T06:58:37.282Z,17.10
2022-09-27T07:01:05.652Z,17.10
2022-09-27T07:03:40.886Z,17.10
2022-09-27T07:06:17.123Z,17.20
2022-09-27T07:08:45.319Z,17.20
2022-09-27T07:11:15.620Z,17.20
2022-09-27T07:13:44.022Z,17.20
2022-09-27T07:16:14.225Z,17.30
2022-09-27T07:18:44.372Z,17.30
2022-09-27T07:21:12.773Z,17.30
2022-09-27T07:23:40.979Z,17.30
2022-09-27T07:26:10.512Z,17.30
2022-09-27T07:28:41.677Z,17.30
2022-09-27T07:31:10.865Z,17.30
2022-09-27T07:33:43.248Z,17.30
2022-09-27T07:36:14.724Z,17.40
2022-09-27T07:38:43.357Z,17.40
2022-09-27T07:41:14.166Z,17.40
2022-09-27T07:43:44.132Z,17.50
2022-09-27T07:46:13.635Z,17.50
2022-09-27T07:48:42.306Z,17.50
2022-09-27T07:51:11.974Z,17.60
2022-09-27T07:53:41.842Z,17.60
2022-09-27T07:56:09.937Z,17.60
2022-09-27T07:58:38.086Z,17.60
2022-09-27T08:01:07.297Z,17.60
2022-09-27T08:03:36.209Z,17.60
2022-09-27T08:06:05.303Z,17.70
2022-09-27T08:08:33.435Z,17.70
2022-09-27T08:11:03.354Z,17.70
2022-09-27T08:13:31.591Z,17.70
2022-09-27T08:16:03.723Z,17.70
2022-09-27T08:18:31.946Z,17.80
2022-09-27T08:21:00.663Z,17.70
2022-09-27T08:23:29.066Z,17.80
2022-09-27T08:25:58.642Z,17.80
2022-09-27T08:28:28.662Z,17.90
2022-09-27T08:30:59.405Z,17.90
2022-09-27T08:33:31.935Z,17.90
2022-09-27T08:36:01.883Z,17.90
2022-09-27T08:38:30.056Z,17.90
2022-09-27T08:41:02.647Z,17.90
2022-09-27T08:43:42.659Z,17.90
2022-09-27T08:46:23.542Z,18.00
2022-09-27T08:49:11.028Z,18.00
2022-09-27T08:51:40.100Z,18.00
2022-09-27T08:54:12.958Z,18.10
2022-09-27T08:56:41.379Z,18.10
2022-09-27T08:59:14.790Z,18.10
2022-09-27T09:01:43.893Z,18.20
2022-09-27T09:04:13.305Z,18.20
2022-09-27T09:06:48.374Z,18.20
2022-09-27T09:09:28.066Z,18.20
2022-09-27T09:12:21.849Z,18.20
2022-09-27T09:15:07.227Z,18.20
2022-09-27T09:17:56.927Z,18.30
2022-09-27T09:20:37.278Z,18.30
2022-09-27T09:23:22.570Z,18.20
2022-09-27T09:26:00.367Z,18.30
2022-09-27T09:28:40.251Z,18.30
2022-09-27T09:31:17.724Z,18.40
2022-09-27T09:33:50.433Z,18.40
2022-09-27T09:36:26.471Z,18.40
2022-09-27T09:38:59.089Z,18.40
2022-09-27T09:41:33.089Z,18.50
2022-09-27T09:44:05.216Z,18.60
2022-09-27T09:46:42.208Z,18.60
2022-09-27T09:49:19.399Z,18.60
2022-09-27T09:51:51.696Z,18.60
2022-09-27T09:54:26.139Z,18.60
2022-09-27T09:57:03.189Z,18.70
2022-09-27T09:59:39.149Z,18.70
2022-09-27T10:02:27.630Z,18.70
2022-09-27T10:04:55.957Z,18.70
2022-09-27T10:07:26.472Z,18.70
2022-09-27T10:09:58.504Z,18.80
2022-09-27T10:12:26.899Z,18.80
2022-09-27T10:14:56.633Z,18.80
2022-09-27T10:17:36.668Z,18.80
2022-09-27T10:20:07.116Z,18.90
2022-09-27T10:22:39.218Z,18.90
2022-09-27T10:25:09.409Z,18.90
2022-09-27T10:27:41.995Z,19.00
2022-09-27T10:30:24.603Z,19.00
2022-09-27T10:32:58.188Z,19.10
2022-09-27T10:35:38.013Z,19.10
2022-09-27T10:38:25.009Z,19.10
2022-09-27T10:40:55.435Z,19.20
2022-09-27T10:43:32.158Z,19.20
2022-09-27T10:46:14.371Z,19.20
2022-09-27T10:48:44.663Z,19.30
2022-09-27T10:51:30.134Z,19.30
2022-09-27T10:54:01.272Z,19.30
2022-09-27T10:56:31.547Z,19.30
2022-09-27T10:59:01.074Z,19.40
2022-09-27T11:01:41.969Z,19.40
2022-09-27T11:04:22.106Z,19.50
2022-09-27T11:06:50.792Z,19.50
2022-09-27T11:09:24.216Z,19.50
2022-09-27T11:11:52.670Z,19.50
2022-09-27T11:14:24.222Z,19.60
2022-09-27T11:17:11.267Z,19.60
2022-09-27T11:19:54.016Z,19.60
2022-09-27T11:22:41.439Z,19.60
2022-09-27T11:25:21.045Z,19.60
2022-09-27T11:28:04.380Z,19.70
2022-09-27T11:30:43.745Z,19.70
2022-09-27T11:33:50.576Z,19.70
2022-09-27T11:36:31.564Z,19.80
2022-09-27T11:39:07.419Z,19.90
2022-09-27T11:41:47.050Z,20.00
2022-09-27T11:44:40.045Z,20.00
2022-09-27T11:47:19.204Z,20.00
2022-09-27T11:50:13.703Z,20.00
2022-09-27T11:52:56.919Z,20.00
2022-09-27T11:55:36.083Z,20.10
2022-09-27T11:58:12.831Z,20.10
2022-09-27T12:00:54.510Z,20.10
2022-09-27T12:03:50.062Z,20.20
2022-09-27T12:06:22.712Z,20.20
2022-09-27T12:09:03.019Z,20.10
2022-09-27T12:11:36.644Z,20.20
2022-09-27T12:14:08.563Z,20.20
2022-09-27T12:16:40.497Z,20.20
2022-09-27T12:19:16.884Z,20.30
2022-09-27T12:21:45.267Z,20.30
2022-09-27T12:24:20.600Z,20.30
2022-09-27T12:26:51.879Z,20.40
2022-09-27T12:29:23.923Z,20.40
2022-09-27T12:32:00.697Z,20.40
2022-09-27T12:34:38.820Z,20.40
2022-09-27T12:37:13.228Z,20.50
2022-09-27T12:39:53.015Z,20.50
2022-09-27T12:42:25.240Z,20.50
2022-09-27T12:44:54.249Z,20.60
2022-09-27T12:47:44.692Z,20.60
2022-09-27T12:55:56.458Z,20.80
2022-09-27T12:58:46.295Z,20.80
2022-09-27T13:04:20.271Z,20.80
2022-09-27T13:07:12.248Z,20.70
2022-09-27T13:09:59.242Z,20.70
2022-09-27T13:12:30.488Z,20.70
2022-09-27T13:17:51.840Z,20.80
2022-09-27T13:20:44.312Z,20.80
2022-09-27T13:23:58.026Z,20.80
2022-09-27T13:26:49.423Z,20.90
2022-09-27T13:29:34.925Z,20.80
2022-09-27T13:32:19.107Z,20.90
2022-09-27T13:34:48.739Z,20.90
2022-09-27T13:37:47.130Z,20.90
2022-09-27T13:40:27.334Z,20.90
2022-09-27T13:43:28.886Z,21.00
2022-09-27T13:46:00.476Z,21.00
2022-09-27T13:48:38.819Z,21.00
2022-09-27T13:51:17.802Z,21.10
2022-09-27T13:53:57.775Z,21.10
2022-09-27T13:56:51.962Z,21.10
2022-09-27T13:59:25.947Z,21.10
2022-09-27T14:02:01.009Z,21.10
2022-09-27T14:04:35.396Z,21.10
2022-09-27T14:07:05.400Z,21.10
2022-09-27T14:09:36.608Z,21.10
2022-09-27T14:12:11.331Z,21.20
2022-09-27T14:14:42.755Z,21.20
2022-09-27T14:17:12.787Z,21.30
2022-09-27T14:19:42.342Z,21.30
2022-09-27T14:22:14.312Z,21.30
2022-09-27T14:24:48.022Z,21.30
2022-09-27T14:27:19.045Z,21.20
2022-09-27T14:29:50.939Z,21.20
2022-09-27T14:32:22.450Z,21.20
2022-09-27T14:35:06.195Z,21.20
2022-09-27T14:37:35.667Z,21.20
2022-09-27T14:40:08.143Z,21.20
2022-09-27T14:42:38.847Z,21.20
2022-09-27T14:45:20.040Z,21.20
2022-09-27T14:47:51.393Z,21.20
2022-09-27T14:50:22.932Z,21.20
2022-09-27T14:52:55.416Z,21.20
2022-09-27T14:55:25.244Z,21.20
2022-09-27T14:57:55.353Z,21.30
2022-09-27T15:00:26.202Z,21.30
2022-09-27T15:02:59.123Z,21.30
2022-09-27T15:05:29.240Z,21.30
2022-09-27T15:08:01.417Z,21.30
2022-09-27T15:10:32.389Z,21.30
2022-09-27T15:13:03.608Z,21.40
2022-09-27T15:15:34.118Z,21.40
2022-09-27T15:18:05.294Z,21.40
2022-09-27T15:20:35.668Z,21.40
2022-09-27T15:23:05.350Z,21.40
2022-09-27T15:25:35.907Z,21.40
2022-09-27T15:28:07.284Z,21.40
2022-09-27T15:30:38.198Z,21.40
2022-09-27T15:33:19.500Z,21.40
2022-09-27T15:35:52.632Z,21.40
2022-09-27T15:38:27.916Z,21.40
2022-09-27T15:41:01.941Z,21.40
2022-09-27T15:43:32.106Z,21.40
2022-09-27T15:46:03.223Z,21.40
2022-09-27T15:48:35.320Z,21.40
2022-09-27T15:51:03.475Z,21.30
2022-09-27T15:53:46.149Z,21.40
2022-09-27T15:56:17.621Z,21.40
2022-09-27T15:58:49.737Z,21.40
2022-09-27T16:01:25.461Z,21.30
2022-09-27T16:03:55.772Z,21.30
2022-09-27T16:06:28.586Z,21.30
2022-09-27T16:08:58.307Z,21.30
2022-09-27T16:11:26.482Z,21.30
2022-09-27T16:13:56.259Z,21.30
2022-09-27T16:16:27.351Z,21.30
2022-09-27T16:18:57.061Z,21.30
2022-09-27T16:21:26.446Z,21.30
2022-09-27T16:23:56.806Z,21.20
2022-09-27T16:26:26.057Z,21.20
2022-09-27T16:28:54.433Z,21.20
2022-09-27T16:31:23.286Z,21.20
2022-09-27T16:33:51.849Z,21.20
2022-09-27T16:36:21.457Z,21.20
2022-09-27T16:38:51.220Z,21.20
2022-09-27T16:41:20.360Z,21.20
2022-09-27T16:43:48.801Z,21.20
2022-09-27T16:46:19.306Z,21.20
2022-09-27T16:48:48.808Z,21.10
2022-09-27T16:51:36.487Z,21.10
2022-09-27T16:54:07.768Z,21.10
2022-09-27T16:56:36.348Z,21.10
2022-09-27T16:59:06.605Z,21.00
2022-09-27T17:01:35.444Z,21.00
2022-09-27T17:04:04.102Z,21.00
2022-09-27T17:06:32.979Z,20.90
2022-09-27T17:09:05.436Z,20.90
2022-09-27T17:11:34.046Z,20.90
2022-09-27T17:14:02.606Z,20.80
2022-09-27T17:16:31.272Z,20.80
2022-09-27T17:18:59.469Z,20.70
2022-09-27T17:21:27.746Z,20.70
2022-09-27T17:23:56.597Z,20.60
2022-09-27T17:26:30.581Z,20.60
2022-09-27T17:29:00.790Z,20.60
2022-09-27T17:31:31.512Z,20.50
2022-09-27T17:34:00.008Z,20.50
2022-09-27T17:36:31.196Z,20.50
2022-09-27T17:38:59.772Z,20.40
2022-09-27T17:41:30.317Z,20.40
2022-09-27T17:44:00.197Z,20.40
2022-09-27T17:46:30.309Z,20.30
2022-09-27T17:49:16.319Z,20.30
2022-09-27T17:51:47.441Z,20.30
2022-09-27T19:24:59.348Z,19.40
2022-09-27T20:23:00.367Z,19.00
2022-09-27T20:25:31.085Z,19.00
2022-09-27T20:28:00.688Z,18.90
2022-09-27T20:30:30.577Z,18.80
2022-09-27T20:33:16.191Z,18.80
2022-09-27T20:35:52.139Z,18.70
2022-09-27T20:38:21.597Z,18.70
2022-09-27T20:40:59.038Z,18.70
2022-09-27T20:43:31.215Z,18.70
2022-09-27T20:46:05.552Z,18.70
2022-09-27T20:48:38.247Z,18.70
2022-09-27T20:51:09.279Z,18.70
2022-09-27T20:53:37.730Z,18.70
2022-09-27T20:56:06.502Z,18.70
2022-09-27T20:58:37.324Z,18.60
2022-09-27T21:01:07.340Z,18.60
2022-09-27T21:03:35.719Z,18.60
2022-09-27T21:06:04.663Z,18.60
2022-09-27T21:08:35.419Z,18.60
2022-09-27T21:11:08.876Z,18.50
2022-09-27T21:13:39.784Z,18.60
2022-09-27T21:16:09.572Z,18.50
2022-09-27T21:18:38.087Z,18.50
2022-09-27T21:21:08.319Z,18.50
2022-09-27T21:23:43.527Z,18.50
2022-09-27T21:26:14.967Z,18.50
2022-09-27T21:28:46.796Z,18.40
2022-09-27T21:31:21.621Z,18.40
2022-09-27T21:33:54.152Z,18.40
2022-09-27T21:36:23.513Z,18.40
2022-09-27T21:38:52.051Z,18.30
2022-09-27T21:41:20.442Z,18.30
2022-09-27T21:43:50.833Z,18.30
2022-09-27T21:46:20.750Z,18.30
2022-09-27T21:48:50.925Z,18.30
2022-09-27T21:51:21.120Z,18.30
2022-09-27T21:53:52.440Z,18.30
2022-09-27T21:56:22.099Z,18.20
2022-09-27T21:58:51.751Z,18.20
2022-09-27T22:01:21.947Z,18.20
2022-09-27T22:03:51.493Z,18.20
2022-09-27T22:06:21.821Z,18.20
2022-09-27T22:08:50.900Z,18.20
2022-09-27T22:11:21.248Z,18.20
2022-09-27T22:13:51.555Z,18.20
2022-09-27T22:16:21.270Z,18.10
2022-09-27T22:18:51.466Z,18.10
2022-09-27T22:21:22.333Z,18.10
2022-09-27T22:23:54.804Z,18.10
2022-09-27T22:26:25.436Z,18.10
2022-09-27T22:28:55.762Z,18.00
2022-09-27T22:31:24.628Z,18.00
2022-09-27T22:33:55.019Z,18.00
2022-09-27T22:36:24.402Z,18.00
2022-09-27T22:38:53.443Z,18.00
2022-09-27T22:41:21.960Z,18.00
2022-09-27T22:43:50.376Z,18.00
2022-09-27T22:46:20.371Z,18.00
2022-09-27T22:48:49.719Z,18.00
2022-09-27T22:51:18.524Z,18.00
2022-09-27T22:53:46.978Z,17.90
2022-09-27T22:56:17.319Z,17.90
2022-09-27T22:58:47.303Z,17.90
2022-09-27T23:01:17.945Z,17.90
2022-09-27T23:03:48.608Z,17.80
2022-09-27T23:06:18.973Z,17.80
2022-09-27T23:08:48.247Z,17.80
2022-09-27T23:11:18.650Z,17.80
2022-09-27T23:13:48.143Z,17.80
2022-09-27T23:16:17.843Z,17.80
2022-09-27T23:18:48.262Z,17.80
2022-09-27T23:21:17.626Z,17.80
2022-09-27T23:23:47.019Z,17.80
2022-09-27T23:26:17.380Z,17.80
2022-09-27T23:28:45.940Z,17.70
2022-09-27T23:31:15.461Z,17.70
2022-09-27T23:33:45.654Z,17.70
2022-09-27T23:36:17.544Z,17.70
2022-09-27T23:38:46.392Z,17.70
2022-09-27T23:41:15.187Z,17.70
2022-09-27T23:43:44.454Z,17.70
2022-09-27T23:46:13.550Z,17.70
2022-09-27T23:48:42.639Z,17.70
2022-09-27T23:51:12.404Z,17.70
2022-09-27T23:53:42.271Z,17.70
2022-09-27T23:56:13.329Z,17.70
2022-09-27T23:58:43.215Z,17.70
